This is the latest recevied weather packets stored in our database for station/object K5GTX. If no packets are shown the sender has not sent any weather packets the latest 10 day(s).
| Time | Temp. | Humidity | Pressure | Rain* | Wind** | Luminosity | Snow |
|---|---|---|---|---|---|---|---|
| 1777225173 | 26.11° C | 99% | 1015 hPa | 0 mm | - | 92 W/m² | - |
| 1777224869 | 26.11° C | 99% | 1014.7 hPa | 0 mm | - | 95 W/m² | - |
| 1777224565 | 26.11° C | 99% | 1014.6 hPa | 0 mm | - | 102 W/m² | - |
| 1777224261 | 26.67° C | 99% | 1014.7 hPa | 0 mm | - | 146 W/m² | - |
| 1777223958 | 26.11° C | 99% | 1014.9 hPa | 0 mm | - | 165 W/m² | - |
| 1777223654 | 26.67° C | 99% | 1014.7 hPa | 0 mm | - | 50 W/m² | - |
| 1777223350 | 26.67° C | 99% | 1014.7 hPa | 0 mm | - | 150 W/m² | - |
| 1777223043 | 27.22° C | 99% | 1014.9 hPa | 0 mm | - | 426 W/m² | - |
| 1777222740 | 27.22° C | 99% | 1014.8 hPa | 0 mm | - | 362 W/m² | - |
| 1777222437 | 27.22° C | 99% | 1015.4 hPa | 0 mm | - | 415 W/m² | - |
| 1777222134 | 26.67° C | 99% | 1015.2 hPa | 0 mm | - | 357 W/m² | - |
| 1777221831 | 27.22° C | 99% | 1015.3 hPa | 0 mm | - | 305 W/m² | - |
| 1777221527 | 26.67° C | 99% | 1015.3 hPa | 0 mm | - | 426 W/m² | - |
| 1777221224 | 26.67° C | 99% | 1015.3 hPa | 0 mm | - | 557 W/m² | - |
| 1777220920 | 26.67° C | 99% | 1015.2 hPa | 0 mm | - | 399 W/m² | - |
| 1777220616 | 26.11° C | 99% | 1014.8 hPa | 0 mm | - | 274 W/m² | - |
| 1777220313 | 26.11° C | 99% | 1015.2 hPa | 0 mm | - | 451 W/m² | - |
| 1777220013 | 25.56° C | 99% | 1014.9 hPa | 0 mm | - | 329 W/m² | - |
| 1777219710 | 26.11° C | 99% | 1014.9 hPa | 0 mm | - | 406 W/m² | - |
| 1777219408 | 26.11° C | 99% | 1014.8 hPa | 0 mm | - | 318 W/m² | - |
| 1777219104 | 26.11° C | 99% | 1014.7 hPa | 0 mm | - | 427 W/m² | - |
| 1777218799 | 26.11° C | 99% | 1014.7 hPa | 0 mm | - | 391 W/m² | - |
| 1777218496 | 26.67° C | 99% | 1014.9 hPa | 0 mm | - | 317 W/m² | - |
| 1777218191 | 26.67° C | 99% | 1015 hPa | 0 mm | - | 361 W/m² | - |
| 1777217888 | 26.11° C | 99% | 1015 hPa | 0 mm | - | 520 W/m² | - |
* Rain latest hour (hover to see other rain measurements)
** Current wind speed in m/s (hover to see current wind gust speed)